createdAt,value
2023-06-28T00:00:03.281Z,2.13
2023-06-28T00:02:36.775Z,2.00
2023-06-28T00:05:08.490Z,2.30
2023-06-28T00:07:37.185Z,2.22
2023-06-28T00:10:08.938Z,2.28
2023-06-28T00:12:37.410Z,2.17
2023-06-28T00:15:06.234Z,1.92
2023-06-28T00:17:34.818Z,2.08
2023-06-28T00:20:07.414Z,2.25
2023-06-28T00:22:37.552Z,2.17
2023-06-28T00:25:06.822Z,2.45
2023-06-28T00:27:35.521Z,1.90
2023-06-28T00:30:03.891Z,2.08
2023-06-28T00:32:34.175Z,2.00
2023-06-28T00:35:02.844Z,2.40
2023-06-28T00:37:31.185Z,2.05
2023-06-28T00:40:01.105Z,2.20
2023-06-28T00:42:29.744Z,2.08
2023-06-28T00:44:58.123Z,1.98
2023-06-28T00:47:28.843Z,2.20
2023-06-28T00:49:58.032Z,2.42
2023-06-28T00:52:27.284Z,2.10
2023-06-28T00:54:55.623Z,2.00
2023-06-28T00:57:25.780Z,2.03
2023-06-28T00:59:54.927Z,2.67
2023-06-28T01:02:24.870Z,2.28
2023-06-28T01:04:58.535Z,2.10
2023-06-28T01:07:28.807Z,2.20
2023-06-28T01:09:58.229Z,1.92
2023-06-28T01:12:28.146Z,2.50
2023-06-28T01:14:56.595Z,1.98
2023-06-28T01:17:25.039Z,1.92
2023-06-28T01:19:55.764Z,2.58
2023-06-28T01:22:26.299Z,1.80
2023-06-28T01:24:57.459Z,2.10
2023-06-28T01:27:26.188Z,2.25
2023-06-28T01:29:58.647Z,1.90
2023-06-28T01:32:27.218Z,2.40
2023-06-28T01:34:55.584Z,1.92
2023-06-28T01:37:24.829Z,2.38
2023-06-28T01:39:53.408Z,2.42
2023-06-28T01:42:23.573Z,2.15
2023-06-28T01:44:52.359Z,2.20
2023-06-28T01:47:22.333Z,2.20
2023-06-28T01:49:51.016Z,1.83
2023-06-28T01:52:19.417Z,2.03
2023-06-28T01:54:47.871Z,2.30
2023-06-28T01:57:16.270Z,2.30
2023-06-28T01:59:46.093Z,1.92
2023-06-28T02:02:14.492Z,2.40
2023-06-28T02:04:42.949Z,1.83
2023-06-28T02:07:12.037Z,2.38
2023-06-28T02:09:40.515Z,2.20
2023-06-28T02:12:09.232Z,2.15
2023-06-28T02:14:40.666Z,2.53
2023-06-28T02:17:14.893Z,1.73
2023-06-28T02:19:43.837Z,2.30
2023-06-28T02:22:12.195Z,2.30
2023-06-28T02:24:40.614Z,2.17
2023-06-28T02:27:11.001Z,2.20
2023-06-28T02:29:39.989Z,2.30
2023-06-28T02:32:08.597Z,2.35
2023-06-28T02:34:38.365Z,2.10
2023-06-28T02:37:09.318Z,2.20
2023-06-28T02:39:37.697Z,2.42
2023-06-28T02:42:06.345Z,2.17
2023-06-28T02:44:36.690Z,2.40
2023-06-28T02:47:06.650Z,2.05
2023-06-28T02:49:35.109Z,2.17
2023-06-28T02:52:04.945Z,2.15
2023-06-28T02:54:33.331Z,2.50
2023-06-28T02:57:02.306Z,2.10
2023-06-28T02:59:49.767Z,2.15
2023-06-28T03:02:18.315Z,2.25
2023-06-28T03:04:47.537Z,2.15
2023-06-28T03:07:18.007Z,2.28
2023-06-28T03:09:47.181Z,2.10
2023-06-28T03:12:15.560Z,2.13
2023-06-28T03:14:45.052Z,2.65
2023-06-28T03:17:13.870Z,2.13
2023-06-28T03:19:42.476Z,2.00
2023-06-28T03:22:11.003Z,2.30
2023-06-28T03:24:40.893Z,2.50
2023-06-28T03:27:09.947Z,2.08
2023-06-28T03:29:39.748Z,2.20
2023-06-28T03:32:09.156Z,2.70
2023-06-28T03:34:37.677Z,2.72
2023-06-28T03:37:08.170Z,2.00
2023-06-28T03:39:36.723Z,2.38
2023-06-28T03:42:06.944Z,2.55
2023-06-28T03:44:35.848Z,2.55
2023-06-28T03:47:04.522Z,2.60
2023-06-28T03:49:32.954Z,2.33
2023-06-28T03:52:01.313Z,2.55
2023-06-28T03:54:29.719Z,2.50
2023-06-28T03:56:58.253Z,2.53
2023-06-28T03:59:27.971Z,2.88
2023-06-28T04:01:56.315Z,2.65
2023-06-28T04:04:24.864Z,2.10
2023-06-28T04:06:53.480Z,2.60
2023-06-28T04:09:21.852Z,2.55
2023-06-28T04:11:50.249Z,2.30
2023-06-28T04:14:18.645Z,2.60
2023-06-28T04:16:48.508Z,2.42
2023-06-28T04:19:17.354Z,2.50
2023-06-28T04:21:46.301Z,2.30
2023-06-28T04:24:14.636Z,3.70
2023-06-28T04:26:43.042Z,3.15
2023-06-28T04:29:11.600Z,2.35
2023-06-28T04:31:40.033Z,2.75
2023-06-28T04:34:09.986Z,2.22
2023-06-28T04:36:41.045Z,1.83
2023-06-28T04:39:09.546Z,1.70
2023-06-28T04:41:37.962Z,2.25
2023-06-28T04:44:10.978Z,2.20
2023-06-28T04:46:39.529Z,2.28
2023-06-28T04:49:08.263Z,2.03
2023-06-28T04:51:38.074Z,2.35
2023-06-28T04:54:06.504Z,2.35
2023-06-28T04:56:38.533Z,1.98
2023-06-28T04:59:06.923Z,2.15
2023-06-28T05:01:35.862Z,2.53
2023-06-28T05:04:05.013Z,2.35
2023-06-28T05:06:33.520Z,2.28
2023-06-28T05:09:03.261Z,2.08
2023-06-28T05:11:31.663Z,2.22
2023-06-28T05:14:02.834Z,2.30
2023-06-28T05:16:31.640Z,2.10
2023-06-28T05:19:00.010Z,2.22
2023-06-28T05:21:28.454Z,2.10
2023-06-28T05:23:56.826Z,2.03
2023-06-28T05:26:26.574Z,1.95
2023-06-28T05:28:54.989Z,1.98
2023-06-28T05:31:23.336Z,2.22
2023-06-28T05:33:51.658Z,1.92
2023-06-28T05:36:22.994Z,2.35
2023-06-28T05:38:53.640Z,2.10
2023-06-28T05:41:22.048Z,2.20
2023-06-28T05:43:52.096Z,2.28
2023-06-28T05:46:20.777Z,2.25
2023-06-28T05:48:49.252Z,2.25
2023-06-28T05:51:19.901Z,2.25
2023-06-28T05:53:48.422Z,2.22
2023-06-28T05:56:16.799Z,2.55
2023-06-28T05:58:45.260Z,2.03
2023-06-28T06:01:15.213Z,2.10
2023-06-28T06:03:43.703Z,2.05
2023-06-28T06:06:12.279Z,2.25
2023-06-28T06:08:40.723Z,1.98
2023-06-28T06:11:09.107Z,1.83
2023-06-28T06:13:37.452Z,2.47
2023-06-28T06:16:06.012Z,2.42
2023-06-28T06:18:37.420Z,2.03
2023-06-28T06:21:05.866Z,2.45
2023-06-28T06:23:35.168Z,2.25
2023-06-28T06:26:03.578Z,1.83
2023-06-28T06:28:31.985Z,1.90
2023-06-28T06:31:00.495Z,2.17
2023-06-28T06:33:29.948Z,2.47
2023-06-28T06:35:59.709Z,2.38
2023-06-28T06:38:28.122Z,2.22
2023-06-28T06:40:56.455Z,2.45
2023-06-28T06:43:24.905Z,2.33
2023-06-28T06:45:54.824Z,2.42
2023-06-28T06:48:23.148Z,2.13
2023-06-28T06:50:51.641Z,2.10
2023-06-28T06:53:21.393Z,2.60
2023-06-28T06:55:50.159Z,2.53
2023-06-28T06:58:18.621Z,2.42
2023-06-28T07:00:47.988Z,2.40
2023-06-28T07:03:16.406Z,2.03
2023-06-28T07:06:10.010Z,2.40
2023-06-28T07:08:59.073Z,2.25
2023-06-28T07:11:28.870Z,2.35
2023-06-28T07:13:57.331Z,2.28
2023-06-28T07:16:25.835Z,1.90
2023-06-28T07:18:55.650Z,2.28
2023-06-28T07:21:24.619Z,2.22
2023-06-28T07:23:54.752Z,2.00
2023-06-28T07:26:23.218Z,1.95
2023-06-28T07:28:53.740Z,2.10
2023-06-28T07:31:22.196Z,2.60
2023-06-28T07:33:50.573Z,2.80
2023-06-28T07:36:19.053Z,2.08
2023-06-28T07:38:47.992Z,2.00
2023-06-28T07:41:16.427Z,2.60
2023-06-28T07:43:44.796Z,2.10
2023-06-28T07:46:14.581Z,2.28
2023-06-28T07:48:43.047Z,2.58
2023-06-28T07:51:11.375Z,2.40
2023-06-28T07:53:40.065Z,2.70
2023-06-28T07:56:08.439Z,2.90
2023-06-28T07:58:38.490Z,2.55
2023-06-28T08:01:07.068Z,2.50
2023-06-28T08:03:36.928Z,2.35
2023-06-28T08:06:05.454Z,2.20
2023-06-28T08:08:33.826Z,1.90
2023-06-28T08:11:02.236Z,2.38
2023-06-28T08:13:30.604Z,2.97
2023-06-28T08:15:58.983Z,1.73
2023-06-28T08:18:27.547Z,2.30
2023-06-28T08:20:57.461Z,2.40
2023-06-28T08:23:25.877Z,2.53
2023-06-28T08:25:54.352Z,2.10
2023-06-28T08:28:23.321Z,2.08
2023-06-28T08:30:51.634Z,1.98
2023-06-28T08:33:19.971Z,2.10
2023-06-28T08:35:48.385Z,2.20
2023-06-28T08:38:18.058Z,2.35
2023-06-28T08:40:46.599Z,2.45
2023-06-28T08:43:16.226Z,2.53
2023-06-28T08:45:45.695Z,2.58
2023-06-28T08:48:28.426Z,2.20
2023-06-28T08:50:59.352Z,2.40
2023-06-28T08:53:30.473Z,2.10
2023-06-28T08:56:00.788Z,2.15
2023-06-28T08:58:29.997Z,2.20
2023-06-28T09:00:58.892Z,2.45
2023-06-28T09:03:27.869Z,2.28
2023-06-28T09:05:56.625Z,2.15
2023-06-28T09:08:25.164Z,2.67
2023-06-28T09:10:55.483Z,2.47
2023-06-28T09:13:23.932Z,2.38
2023-06-28T09:15:52.720Z,2.08
2023-06-28T09:18:21.276Z,2.20
2023-06-28T09:20:50.906Z,2.75
2023-06-28T09:23:24.992Z,2.30
2023-06-28T09:25:54.942Z,1.92
2023-06-28T09:28:25.120Z,2.50
2023-06-28T09:30:56.916Z,2.15
2023-06-28T09:33:25.637Z,2.70
2023-06-28T09:35:57.754Z,2.42
2023-06-28T09:38:26.445Z,3.88
2023-06-28T09:40:59.707Z,2.50
2023-06-28T09:43:33.445Z,2.55
2023-06-28T09:46:12.931Z,2.78
2023-06-28T09:48:44.353Z,2.50
2023-06-28T09:51:13.374Z,2.50
2023-06-28T09:53:51.592Z,2.45
2023-06-28T09:56:21.410Z,2.55
2023-06-28T09:58:50.286Z,2.30
2023-06-28T10:01:19.001Z,2.58
2023-06-28T10:03:48.179Z,2.17
2023-06-28T10:06:16.670Z,2.35
2023-06-28T10:08:45.742Z,2.22
2023-06-28T10:11:15.558Z,2.33
2023-06-28T10:13:45.768Z,2.33
2023-06-28T10:16:16.480Z,2.30
2023-06-28T10:18:44.949Z,2.70
2023-06-28T10:21:13.298Z,2.47
2023-06-28T10:23:43.252Z,2.00
2023-06-28T10:26:11.887Z,2.97
2023-06-28T10:28:41.377Z,2.17
2023-06-28T10:31:11.199Z,2.60
2023-06-28T10:33:40.464Z,2.45
2023-06-28T10:36:08.957Z,2.60
2023-06-28T10:38:39.042Z,2.10
2023-06-28T10:41:21.937Z,2.53
2023-06-28T10:44:04.916Z,2.67
2023-06-28T10:46:35.009Z,2.47
2023-06-28T10:49:04.297Z,2.33
2023-06-28T10:51:33.251Z,2.90
2023-06-28T10:54:12.011Z,2.50
2023-06-28T10:56:45.036Z,2.63
2023-06-28T10:59:13.537Z,2.58
2023-06-28T11:01:53.669Z,2.60
2023-06-28T11:04:23.458Z,2.45
2023-06-28T11:07:11.555Z,2.67
2023-06-28T11:09:40.011Z,2.75
2023-06-28T11:15:29.659Z,2.55
2023-06-28T11:18:08.943Z,3.00
2023-06-28T11:20:47.079Z,3.15
2023-06-28T11:23:54.331Z,2.78
2023-06-28T11:27:15.183Z,3.28
2023-06-28T11:29:59.823Z,3.10
2023-06-28T11:32:29.411Z,3.20
2023-06-28T11:35:00.143Z,3.08
2023-06-28T11:37:29.626Z,3.30
2023-06-28T11:39:58.015Z,3.58
2023-06-28T11:42:26.479Z,3.30
2023-06-28T11:44:55.146Z,2.88
2023-06-28T11:47:28.235Z,3.08
2023-06-28T11:49:57.531Z,3.25
2023-06-28T11:52:27.465Z,3.00
2023-06-28T11:54:55.874Z,2.88
2023-06-28T11:57:24.293Z,3.35
2023-06-28T11:59:53.264Z,3.17
2023-06-28T12:02:22.909Z,3.17
2023-06-28T12:04:59.578Z,3.65
2023-06-28T12:07:29.891Z,2.78
2023-06-28T12:09:59.193Z,3.05
2023-06-28T12:12:41.921Z,2.88
2023-06-28T12:15:14.546Z,2.83
2023-06-28T12:17:44.366Z,2.70
2023-06-28T12:20:14.104Z,2.67
2023-06-28T12:22:45.443Z,3.08
2023-06-28T12:25:14.155Z,3.08
2023-06-28T12:27:42.904Z,2.92
2023-06-28T12:30:12.240Z,2.78
2023-06-28T12:32:45.190Z,3.00
2023-06-28T12:35:23.706Z,2.60
2023-06-28T12:37:56.749Z,2.97
2023-06-28T12:40:26.146Z,2.47
2023-06-28T12:43:10.517Z,2.53
2023-06-28T12:45:44.927Z,2.53
2023-06-28T12:48:14.189Z,2.60
2023-06-28T12:50:42.614Z,2.85
2023-06-28T12:53:12.509Z,2.40
2023-06-28T12:55:41.500Z,2.03
2023-06-28T12:58:10.573Z,2.20
2023-06-28T13:00:39.417Z,2.58
2023-06-28T13:03:09.220Z,2.70
2023-06-28T13:05:37.725Z,2.50
2023-06-28T13:08:06.628Z,2.53
2023-06-28T13:10:37.269Z,2.10
2023-06-28T13:13:05.724Z,2.65
2023-06-28T13:15:34.129Z,2.33
2023-06-28T13:18:02.642Z,2.55
2023-06-28T13:20:31.173Z,2.40
2023-06-28T13:22:59.589Z,2.60
2023-06-28T13:25:28.225Z,2.38
2023-06-28T13:28:00.519Z,2.38
2023-06-28T13:30:31.627Z,2.20
2023-06-28T13:33:00.674Z,2.47
2023-06-28T13:35:29.142Z,2.95
2023-06-28T13:37:57.583Z,2.40
2023-06-28T13:40:26.542Z,1.90
2023-06-28T13:42:55.224Z,2.30
2023-06-28T13:45:25.090Z,1.80
2023-06-28T13:47:53.554Z,2.25
2023-06-28T13:50:21.977Z,2.10
2023-06-28T13:52:50.398Z,2.22
2023-06-28T13:55:18.894Z,2.50
2023-06-28T13:58:36.959Z,2.50
2023-06-28T14:01:06.954Z,2.00
2023-06-28T14:03:35.403Z,2.58
2023-06-28T14:06:03.763Z,2.20
2023-06-28T14:08:32.321Z,2.40
2023-06-28T14:11:00.815Z,2.55
2023-06-28T14:13:29.331Z,2.28
2023-06-28T14:16:23.265Z,2.40
2023-06-28T14:19:40.809Z,2.30
2023-06-28T14:22:11.572Z,2.22
2023-06-28T14:24:41.050Z,2.33
2023-06-28T14:27:09.501Z,2.50
2023-06-28T14:29:37.886Z,2.65
2023-06-28T14:32:06.949Z,2.42
2023-06-28T14:34:35.402Z,2.35
2023-06-28T14:37:03.797Z,2.63
2023-06-28T14:39:33.548Z,2.58
2023-06-28T14:42:01.888Z,2.47
2023-06-28T14:49:49.373Z,2.38
2023-06-28T14:52:17.976Z,2.45
2023-06-28T14:54:47.721Z,2.40
2023-06-28T14:57:16.267Z,2.50
2023-06-28T14:59:45.841Z,2.55
2023-06-28T15:02:14.571Z,2.42
2023-06-28T15:04:43.218Z,2.28
2023-06-28T15:07:11.719Z,2.50
2023-06-28T15:09:40.207Z,2.50
2023-06-28T15:12:12.893Z,2.40
2023-06-28T15:14:41.761Z,2.40
2023-06-28T15:17:10.302Z,2.35
2023-06-28T15:19:38.787Z,2.35
2023-06-28T15:22:07.527Z,2.45
2023-06-28T15:24:35.901Z,2.42
2023-06-28T15:27:04.476Z,2.58
2023-06-28T15:29:34.242Z,2.90
2023-06-28T15:32:02.956Z,2.47
2023-06-28T15:34:33.491Z,2.65
2023-06-28T15:37:14.301Z,2.92
2023-06-28T15:39:44.608Z,2.70
2023-06-28T15:42:18.532Z,2.70
2023-06-28T15:44:51.603Z,2.53
2023-06-28T15:47:20.084Z,2.63
2023-06-28T15:49:48.456Z,3.00
2023-06-28T15:52:16.897Z,2.47
2023-06-28T15:54:45.547Z,2.25
2023-06-28T15:57:16.383Z,2.00
2023-06-28T15:59:44.756Z,2.38
2023-06-28T16:24:24.322Z,2.30
2023-06-28T16:26:52.758Z,2.10
2023-06-28T16:29:24.008Z,2.40
2023-06-28T16:31:52.499Z,2.67
2023-06-28T16:34:20.867Z,2.47
2023-06-28T16:36:49.222Z,2.30
2023-06-28T16:39:17.815Z,2.40
2023-06-28T16:42:21.865Z,2.53
2023-06-28T16:44:51.600Z,2.60
2023-06-28T16:47:20.047Z,2.80
2023-06-28T16:49:48.438Z,2.33
2023-06-28T17:05:58.803Z,2.67
2023-06-28T17:17:50.266Z,1.92
2023-06-28T17:20:20.060Z,2.17
2023-06-28T17:22:48.457Z,2.35
2023-06-28T17:25:16.867Z,2.15
2023-06-28T17:27:45.346Z,2.10
2023-06-28T17:30:14.310Z,1.88
2023-06-28T17:32:42.800Z,2.30
2023-06-28T17:35:11.645Z,2.20
2023-06-28T17:37:41.456Z,1.98
2023-06-28T17:40:10.661Z,2.30
2023-06-28T17:42:39.025Z,2.10
2023-06-28T17:45:08.041Z,2.30
2023-06-28T17:47:36.539Z,1.70
2023-06-28T17:50:05.277Z,2.50
2023-06-28T17:52:33.674Z,1.90
2023-06-28T17:55:03.438Z,2.20
2023-06-28T17:57:32.070Z,1.77
2023-06-28T18:00:00.553Z,2.50
2023-06-28T18:02:29.382Z,2.30
2023-06-28T18:04:58.156Z,2.38
2023-06-28T18:07:27.392Z,2.30
2023-06-28T18:09:56.010Z,2.30
2023-06-28T18:12:25.810Z,2.22
2023-06-28T18:14:54.425Z,2.42
2023-06-28T18:17:23.263Z,2.40
2023-06-28T18:19:52.411Z,2.38
2023-06-28T18:22:20.924Z,2.58
2023-06-28T18:24:49.405Z,2.70
2023-06-28T18:27:17.985Z,2.80
2023-06-28T18:29:47.796Z,2.00
2023-06-28T18:32:16.329Z,1.80
2023-06-28T18:34:44.727Z,1.90
2023-06-28T18:37:13.266Z,2.05
2023-06-28T18:39:41.679Z,1.85
2023-06-28T18:42:10.382Z,1.67
2023-06-28T18:44:38.840Z,1.70
2023-06-28T18:47:08.941Z,1.50
2023-06-28T18:49:37.400Z,1.70
2023-06-28T18:52:06.208Z,2.13
2023-06-28T18:54:34.581Z,2.00
2023-06-28T18:57:02.942Z,1.40
2023-06-28T18:59:31.393Z,2.03
2023-06-28T19:01:59.806Z,1.60
2023-06-28T19:04:30.035Z,1.60
2023-06-28T19:07:00.000Z,1.60
2023-06-28T19:09:28.415Z,1.52
2023-06-28T19:11:57.878Z,1.35
2023-06-28T19:14:27.312Z,1.55
2023-06-28T19:16:55.731Z,1.70
2023-06-28T19:19:24.073Z,1.80
2023-06-28T19:21:53.760Z,1.90
2023-06-28T19:24:22.116Z,1.60
2023-06-28T19:26:50.462Z,1.73
2023-06-28T19:29:18.820Z,1.70
2023-06-28T19:31:47.255Z,1.52
2023-06-28T19:34:15.693Z,1.65
2023-06-28T19:36:44.199Z,1.42
2023-06-28T19:39:14.012Z,1.60
2023-06-28T19:41:42.466Z,1.95
2023-06-28T19:44:10.819Z,1.77
2023-06-28T19:46:39.204Z,1.88
2023-06-28T19:49:07.638Z,2.03
2023-06-28T19:51:36.013Z,2.10
2023-06-28T19:54:04.400Z,1.70
2023-06-28T19:56:34.169Z,1.90
2023-06-28T19:59:02.729Z,1.83
2023-06-28T20:01:31.141Z,1.90
2023-06-28T20:03:59.599Z,1.90
2023-06-28T20:06:34.616Z,2.17
2023-06-28T20:09:09.850Z,2.00
2023-06-28T20:11:39.785Z,2.33
2023-06-28T20:14:08.304Z,1.95
2023-06-28T20:16:36.669Z,2.17
2023-06-28T20:19:05.247Z,2.05
2023-06-28T20:21:33.599Z,2.15
2023-06-28T20:24:02.158Z,2.17
2023-06-28T20:26:31.090Z,2.10
2023-06-28T20:29:00.801Z,2.10
2023-06-28T20:31:29.193Z,2.60
2023-06-28T20:33:57.567Z,2.35
2023-06-28T20:36:26.067Z,1.90
2023-06-28T20:38:54.716Z,2.30
2023-06-28T20:41:25.989Z,2.38
2023-06-28T20:43:54.726Z,2.20
2023-06-28T20:46:25.715Z,2.10
2023-06-28T20:48:55.014Z,1.95
2023-06-28T20:51:23.373Z,2.45
2023-06-28T20:53:51.807Z,2.17
2023-06-28T20:56:20.713Z,2.53
2023-06-28T20:58:49.360Z,2.70
2023-06-28T21:01:20.600Z,2.50
2023-06-28T21:03:52.529Z,1.95
2023-06-28T21:06:22.572Z,2.38
2023-06-28T21:08:50.981Z,2.03
2023-06-28T21:11:19.343Z,2.17
2023-06-28T21:13:47.731Z,2.30
2023-06-28T21:16:16.258Z,2.80
2023-06-28T21:18:46.857Z,2.35
2023-06-28T21:21:16.804Z,2.40
2023-06-28T21:23:45.212Z,2.85
2023-06-28T21:26:14.118Z,2.65
2023-06-28T21:28:42.417Z,2.50
2023-06-28T21:31:10.810Z,2.60
2023-06-28T21:33:39.288Z,2.60
2023-06-28T21:36:08.032Z,2.85
2023-06-28T21:38:38.086Z,3.03
2023-06-28T21:41:06.641Z,3.67
2023-06-28T21:43:35.041Z,2.90
2023-06-28T21:46:09.653Z,2.42
2023-06-28T21:48:38.266Z,2.90
2023-06-28T21:51:06.845Z,2.35
2023-06-28T21:53:35.206Z,2.95
2023-06-28T21:56:05.083Z,2.20
2023-06-28T21:58:36.034Z,2.58
2023-06-28T22:01:04.447Z,2.45
2023-06-28T22:03:32.976Z,2.42
2023-06-28T22:06:01.528Z,2.40
2023-06-28T22:08:30.173Z,2.97
2023-06-28T22:10:58.579Z,3.00
2023-06-28T22:13:28.224Z,2.40
2023-06-28T22:16:03.250Z,1.90
2023-06-28T22:18:33.480Z,2.30
2023-06-28T22:21:02.351Z,2.22
2023-06-28T22:23:30.737Z,2.53
2023-06-28T22:25:59.109Z,2.92
2023-06-28T22:28:29.250Z,2.95
2023-06-28T22:30:58.054Z,2.30
2023-06-28T22:33:26.535Z,2.53
2023-06-28T22:35:54.939Z,2.63
2023-06-28T22:38:23.317Z,2.85
2023-06-28T22:40:51.741Z,2.75
2023-06-28T22:43:20.126Z,3.20
2023-06-28T22:45:49.900Z,2.78
2023-06-28T22:48:20.114Z,2.85
2023-06-28T22:50:50.057Z,2.67
2023-06-28T22:53:18.541Z,2.65
2023-06-28T22:55:49.956Z,2.80
2023-06-28T22:58:18.402Z,3.05
2023-06-28T23:00:46.820Z,2.58
2023-06-28T23:03:16.606Z,2.28
2023-06-28T23:05:46.202Z,2.67
2023-06-28T23:08:14.920Z,2.50
2023-06-28T23:10:43.537Z,2.88
2023-06-28T23:13:12.035Z,2.60
2023-06-28T23:15:40.779Z,2.50
2023-06-28T23:18:09.356Z,2.83
2023-06-28T23:20:39.367Z,2.40
2023-06-28T23:23:07.697Z,2.80
2023-06-28T23:25:36.092Z,2.83
2023-06-28T23:28:04.434Z,2.70
2023-06-28T23:30:35.771Z,2.53
2023-06-28T23:33:07.315Z,2.67
2023-06-28T23:35:37.327Z,2.70
2023-06-28T23:38:07.849Z,2.53
2023-06-28T23:40:36.742Z,2.70
2023-06-28T23:43:05.178Z,2.80
2023-06-28T23:45:34.436Z,2.70
2023-06-28T23:48:03.089Z,2.88
2023-06-28T23:50:33.487Z,2.60
2023-06-28T23:53:02.797Z,2.80
2023-06-28T23:55:34.860Z,3.00
2023-06-28T23:58:03.313Z,2.72
